KRCA/RCA METAR and TAF weather

Enter ICAO airport designator
Station Type Date Time Source
KRCA METAR 2019/12/05 21:56 UTC NOAA

KRCA 052156Z AUTO 34012KT 10SM OVC009 01/M02 A3012 RMK AO2 PK WND 36027/2058 SLP239 T00111016


Station Type Date Time Source
KRCA Decoded METAR 2019/12/05 21:56 UTC NOAA

Ellsworth Air Force Base, SD, United States (KRCA) 44-09N 103-06W
Dec 05, 2019 - 04:56 PM EST / 2019.12.05 2156 UTC
Wind: from the NNW (340 degrees) at 14 MPH (12 KT):0
Visibility: 10 mile(s):0
Sky conditions: overcast
Temperature: 34.0 F (1.1 C)
Windchill: 24 F (-4 C):1
Dew Point: 29.1 F (-1.6 C)
Relative Humidity: 82%
Pressure (altimeter): 30.12 in. Hg (1019 hPa)
ob: KRCA 052156Z AUTO 34012KT 10SM OVC009 01/M02 A3012 RMK AO2 PK WND 36027/2058 SLP239 T00111016
cycle: 22

Station Type Date Time Source
KRCA TAF 2019/12/05 21:15 UTC NOAA

TAF
AMD KRCA 052105Z 0521/0701 33015G27KT 9999 OVC010 520001 QNH2999INS
BECMG 0522/0523 33012G18KT 9999 BKN008 620206 QNH2999INS
BECMG 0605/0606 18008KT 6000 BR BKN008 620406 QNH3013INS
BECMG 0614/0615 VRB06KT 9999 NSW SCT040 QNH3009INS TX03/0619Z TNM05/0614Z

Example: see airport list